SWR1726 LSZH-LIRF
Flight info
| Callsign | SWR1726 |
|---|---|
| Flight time | N/A |
| Altitude | 35000 |
| Route | VEBIT T53 GERSA DCT SOSON DCT ODINA DCT EKPAL DCT TINKU DCT XIBIL |
| Aircraft | A321/M-SDE3FGHIRWY/LB1 |
Departure
| Time | 2026-02-17 04:12 |
|---|---|
| Airport | Zürich Airport (LSZH) |
Arrival
| Time | N/A |
|---|---|
| Airport | Rome–Fiumicino Leonardo da Vinci International Airport (LIRF) |
| Time | Latitude | Longitude | Altitude | Speed | Heading |
|---|---|---|---|---|---|
| 2026-02-17 03:52 | 47.45174 | 8.55937 | 1407 ft | 0 kts | 186° |
| 2026-02-17 04:00 | 47.45183 | 8.55938 | 1407 ft | 3 kts | 185° |
| 2026-02-17 04:00 | 47.45203 | 8.55940 | 1409 ft | 3 kts | 182° |
| 2026-02-17 04:00 | 47.45223 | 8.55941 | 1409 ft | 3 kts | 185° |
| 2026-02-17 04:01 | 47.45242 | 8.55946 | 1413 ft | 3 kts | 216° |
| 2026-02-17 04:01 | 47.45249 | 8.55955 | 1414 ft | 1 kts | 275° |
| 2026-02-17 04:01 | 47.45249 | 8.55957 | 1414 ft | 0 kts | 276° |
| 2026-02-17 04:04 | 47.45249 | 8.55947 | 1409 ft | 4 kts | 276° |
| 2026-02-17 04:04 | 47.45255 | 8.55872 | 1410 ft | 9 kts | 276° |
| 2026-02-17 04:04 | 47.45261 | 8.55780 | 1408 ft | 9 kts | 276° |
| 2026-02-17 04:05 | 47.45268 | 8.55698 | 1407 ft | 8 kts | 276° |
| 2026-02-17 04:05 | 47.45273 | 8.55624 | 1409 ft | 7 kts | 276° |
| 2026-02-17 04:05 | 47.45316 | 8.55550 | 1409 ft | 12 kts | 333° |
| 2026-02-17 04:05 | 47.45386 | 8.55500 | 1412 ft | 11 kts | 334° |
| 2026-02-17 04:06 | 47.45460 | 8.55451 | 1410 ft | 12 kts | 336° |
| 2026-02-17 04:06 | 47.45536 | 8.55400 | 1406 ft | 12 kts | 334° |
| 2026-02-17 04:06 | 47.45616 | 8.55344 | 1404 ft | 10 kts | 336° |
| 2026-02-17 04:07 | 47.45668 | 8.55439 | 1401 ft | 9 kts | 94° |
| 2026-02-17 04:07 | 47.45663 | 8.55526 | 1403 ft | 8 kts | 96° |
| 2026-02-17 04:07 | 47.45654 | 8.55651 | 1405 ft | 16 kts | 96° |
| 2026-02-17 04:07 | 47.45642 | 8.55796 | 1407 ft | 12 kts | 96° |
| 2026-02-17 04:08 | 47.45633 | 8.55911 | 1409 ft | 13 kts | 96° |
| 2026-02-17 04:08 | 47.45622 | 8.56087 | 1411 ft | 22 kts | 96° |
| 2026-02-17 04:08 | 47.45603 | 8.56346 | 1419 ft | 27 kts | 96° |
| 2026-02-17 04:08 | 47.45582 | 8.56611 | 1419 ft | 24 kts | 95° |
| 2026-02-17 04:09 | 47.45568 | 8.56842 | 1420 ft | 21 kts | 95° |
| 2026-02-17 04:09 | 47.45562 | 8.56955 | 1420 ft | 7 kts | 90° |
| 2026-02-17 04:09 | 47.45580 | 8.57004 | 1422 ft | 5 kts | 37° |
| 2026-02-17 04:09 | 47.45629 | 8.57023 | 1425 ft | 7 kts | 8° |
| 2026-02-17 04:10 | 47.45649 | 8.57024 | 1425 ft | 4 kts | 356° |
| 2026-02-17 04:10 | 47.45664 | 8.56976 | 1424 ft | 6 kts | 277° |
| 2026-02-17 04:11 | 47.45665 | 8.56964 | 1424 ft | 0 kts | 277° |
| 2026-02-17 04:11 | 47.45665 | 8.56963 | 1424 ft | 1 kts | 277° |
| 2026-02-17 04:11 | 47.45748 | 8.55774 | 1414 ft | 125 kts | 276° |
| 2026-02-17 04:12 | 47.45839 | 8.54221 | 1434 ft | 172 kts | 275° |
| 2026-02-17 04:12 | 47.45957 | 8.52479 | 2178 ft | 168 kts | 275° |
| 2026-02-17 04:12 | 47.46084 | 8.50769 | 2991 ft | 169 kts | 275° |
| 2026-02-17 04:12 | 47.46206 | 8.48969 | 3360 ft | 183 kts | 273° |
| 2026-02-17 04:13 | 47.45875 | 8.47083 | 3563 ft | 209 kts | 238° |
| 2026-02-17 04:13 | 47.44684 | 8.45591 | 3844 ft | 241 kts | 220° |
| 2026-02-17 04:13 | 47.43396 | 8.44028 | 4690 ft | 236 kts | 234° |
| 2026-02-17 04:13 | 47.42367 | 8.42125 | 5437 ft | 237 kts | 241° |
| 2026-02-17 04:14 | 47.41427 | 8.40097 | 6170 ft | 243 kts | 243° |
| 2026-02-17 04:14 | 47.40470 | 8.37997 | 6857 ft | 249 kts | 242° |
| 2026-02-17 04:14 | 47.39368 | 8.35984 | 7548 ft | 261 kts | 227° |
| 2026-02-17 04:15 | 47.35674 | 8.34850 | 8925 ft | 306 kts | 165° |
| 2026-02-17 04:15 | 47.33748 | 8.36308 | 9654 ft | 316 kts | 152° |
| 2026-02-17 04:15 | 47.31870 | 8.38076 | 10185 ft | 329 kts | 149° |
| 2026-02-17 04:15 | 47.29934 | 8.40003 | 10364 ft | 352 kts | 148° |
| 2026-02-17 04:16 | 47.27854 | 8.42109 | 10567 ft | 372 kts | 148° |
| 2026-02-17 04:16 | 47.25696 | 8.44282 | 11127 ft | 378 kts | 148° |
| 2026-02-17 04:16 | 47.23388 | 8.46248 | 11784 ft | 381 kts | 155° |
| 2026-02-17 04:16 | 47.21020 | 8.48036 | 12456 ft | 384 kts | 156° |
| 2026-02-17 04:17 | 47.18617 | 8.49806 | 13135 ft | 388 kts | 158° |
| 2026-02-17 04:17 | 47.16084 | 8.51161 | 13770 ft | 387 kts | 169° |
| 2026-02-17 04:17 | 47.13433 | 8.51837 | 14375 ft | 387 kts | 179° |
| 2026-02-17 04:17 | 47.10777 | 8.52197 | 14998 ft | 390 kts | 179° |
| 2026-02-17 04:18 | 47.08060 | 8.52582 | 15606 ft | 394 kts | 179° |
| 2026-02-17 04:18 | 47.05315 | 8.52980 | 16194 ft | 399 kts | 179° |
| 2026-02-17 04:18 | 47.02537 | 8.53387 | 16746 ft | 404 kts | 179° |
| 2026-02-17 04:19 | 46.96885 | 8.54217 | 17868 ft | 412 kts | 179° |
| 2026-02-17 04:19 | 46.94030 | 8.54631 | 18426 ft | 415 kts | 179° |
| 2026-02-17 04:19 | 46.91145 | 8.55046 | 18908 ft | 418 kts | 179° |
| 2026-02-17 04:19 | 46.88235 | 8.55466 | 19311 ft | 423 kts | 179° |
| 2026-02-17 04:20 | 46.85291 | 8.55890 | 19797 ft | 427 kts | 179° |
| 2026-02-17 04:20 | 46.82313 | 8.56314 | 20217 ft | 433 kts | 179° |
| 2026-02-17 04:20 | 46.79295 | 8.56742 | 20649 ft | 438 kts | 179° |
| 2026-02-17 04:20 | 46.76243 | 8.57176 | 21109 ft | 444 kts | 179° |
| 2026-02-17 04:21 | 46.73152 | 8.57615 | 21497 ft | 449 kts | 179° |
| 2026-02-17 04:21 | 46.70032 | 8.58059 | 21893 ft | 452 kts | 179° |
| 2026-02-17 04:21 | 46.66885 | 8.58507 | 22291 ft | 456 kts | 179° |
| 2026-02-17 04:21 | 46.63711 | 8.58960 | 22681 ft | 461 kts | 179° |
| 2026-02-17 04:22 | 46.60491 | 8.59420 | 22993 ft | 469 kts | 179° |
| 2026-02-17 04:22 | 46.57229 | 8.59884 | 23399 ft | 473 kts | 179° |
| 2026-02-17 04:22 | 46.53940 | 8.60354 | 23715 ft | 477 kts | 179° |
| 2026-02-17 04:23 | 46.47288 | 8.61308 | 24350 ft | 484 kts | 179° |
| 2026-02-17 04:23 | 46.43923 | 8.61788 | 24648 ft | 488 kts | 180° |
| 2026-02-17 04:23 | 46.40570 | 8.62261 | 24903 ft | 491 kts | 180° |